WAAA/UPG METAR and TAF weather

Enter ICAO airport designator
Station Type Date Time Source
WAAA METAR 2020/01/18 15:30 UTC NOAA

WAAA 181530Z 11002KT 6000 FEW019 26/26 Q1011 NOSIG


Station Type Date Time Source
WAAA Decoded METAR 2020/01/18 15:30 UTC NOAA

Ujung Pandang / Hasanuddin, Indonesia (WAAA) 05-04S 119-33E 14M
Jan 18, 2020 - 10:30 AM EST / 2020.01.18 1530 UTC
Wind: from the ESE (110 degrees) at 2 MPH (2 KT):0
Visibility: 3 mile(s):0
Sky conditions: mostly clear
Temperature: 78 F (26 C)
Dew Point: 78 F (26 C)
Relative Humidity: 100%
Pressure (altimeter): 29.85 in. Hg (1011 hPa)
ob: WAAA 181530Z 11002KT 6000 FEW019 26/26 Q1011 NOSIG
cycle: 15

Station Type Date Time Source
WAAA TAF 2020/01/18 12:06 UTC NOAA

TAF TAF WAAA 181100Z 1812/1918 09004KT 8000 SCT019
BECMG 1820/1822 9999
BECMG 1901/1903 30010KT

Example: see airport list